Latest Coastal Weather Observations for Minlaton Airport

IDS60701

Issued at 12:41 pm CDT Saturday 21 January 2017 (issued every 10 minutes, with the page automatically refreshed every 10 minutes)

About coastal observations | Map of coastal stations | Coastal observations for SA | Marine services | Other Formats
Station Details ID: 022031 Name: MINLATON AERO Lat: -34.75 Lon: 137.53 Height: 32.0 m
Data from the previous 72 hours. | See also: Recent months at Minlaton Airport
Date/Time
CDT
Temp
°C
Wind Pressure Rain since
9am
mm
Weather Cloud Vis
km
Sea
Height
m
Swell
Dir  Spd
kts
Gust
kts
hPa Trend Height
m
Period
s
Dir
21/12:30pm 24.4 NE 9 13 1014.3 - 0.0 - - - - - - -
21/12:00pm 23.4 NE 7 11 1014.4 - 0.0 - - - - - - -
21/11:30am 22.2 NE 9 14 1014.6 - 0.0 - - - - - - -
21/11:00am 22.2 ENE 11 17 1014.6 - 0.0 - - - - - - -
21/10:30am 21.7 E 10 16 1014.7 - 0.0 - - - - - - -
21/10:00am 20.8 E 13 19 1014.9 - 0.0 - - - - - - -
21/09:30am 20.3 E 13 18 1015.1 - 0.0 - - - - - - -
21/09:00am 19.4 ESE 11 16 1015.2 - 0.2 - - - - - - -
21/08:30am 19.2 E 11 14 1015.0 - 0.2 - - - - - - -
21/08:00am 18.5 E 10 15 1014.8 - 0.2 - - - - - - -
21/07:30am 16.3 E 4 6 1014.5 - 0.2 - - - - - - -
21/07:00am 16.4 SE 6 8 1014.1 - 0.2 - - - - - - -
21/06:30am 15.4 SE 7 7 1013.8 - 0.2 - - - - - - -
21/06:00am 14.9 SE 7 9 1013.7 - 0.2 - - - - - - -
21/05:30am 14.4 ESE 9 9 1013.6 - 0.2 - - - - - - -
21/05:00am 14.3 SE 11 12 1013.3 - 0.2 - - - - - - -
21/04:30am 12.9 SSE 9 10 1013.3 - 0.2 - - - - - - -
21/04:00am 12.6 SSE 9 10 1013.3 - 0.2 - - - - - - -
21/03:30am 12.2 SSE 9 9 1013.1 - 0.2 - - - - - - -
21/03:00am 11.7 SSE 8 9 1012.9 - 0.2 - - - - - - -
21/02:30am 11.7 SSE 8 9 1013.1 - 0.2 - - - - - - -
21/02:00am 12.1 SSE 6 7 1013.3 - 0.2 - - - - - - -
21/01:30am 12.4 SSE 7 7 1013.3 - 0.2 - - - - - - -
21/01:00am 12.7 SSE 7 8 1013.4 - 0.2 - - - - - - -
21/12:30am 12.5 SSE 7 7 1013.3 - 0.2 - - - - - - -
21/12:00am 13.7 SE 7 8 1013.2 - 0.2 - - - - - - -
 
Date/Time
CDT
Temp
°C
Wind Pressure Rain since
9am
mm
Weather Cloud Vis
km
Sea
Height
m
Swell
Dir  Spd
kts
Gust
kts
hPa Trend Height
m
Period
s
Dir
20/11:30pm 14.4 SE 9 11 1012.7 - 0.2 - - - - - - -
20/11:00pm 14.2 SSE 6 8 1012.4 - 0.2 - - - - - - -
20/10:30pm 14.9 SE 7 9 1012.2 - 0.2 - - - - - - -
20/10:00pm 15.8 SE 8 10 1011.8 - 0.2 - - - - - - -
20/09:30pm 16.4 SE 8 9 1011.7 - 0.2 - - - - - - -
20/09:00pm 17.3 SSE 11 15 1011.3 - 0.2 - - - - - - -
20/08:30pm 18.1 SE 13 16 1011.0 - 0.2 - - - - - - -
20/08:00pm 18.7 SE 13 16 1010.5 - 0.2 - - - - - - -
20/07:30pm 20.3 SE 14 19 1010.0 - 0.2 - - - - - - -
20/07:00pm 21.4 S 14 19 1009.5 - 0.2 - - - - - - -
20/06:30pm 21.2 S 13 19 1009.3 - 0.2 - - - - - - -
20/06:00pm 22.2 S 14 20 1009.1 - 0.2 - - - - - - -
20/05:30pm 21.7 S 14 20 1009.1 - 0.2 - - - - - - -
20/05:00pm 23.0 S 13 18 1009.1 - 0.2 - - - - - - -
20/04:30pm 23.1 S 14 21 1009.0 - 0.2 - - - - - - -
20/04:00pm 22.9 S 14 20 1008.9 - 0.2 - - - - - - -
20/03:30pm 22.5 SSE 14 19 1008.9 - 0.2 - - - - - - -
20/03:00pm 22.5 S 13 20 1008.9 - 0.2 - - - - - - -
20/02:30pm 23.6 S 15 22 1008.7 - 0.2 - - - - - - -
20/02:00pm 23.6 SSE 14 21 1008.7 - 0.2 - - - - - - -
20/01:30pm 24.6 S 15 21 1008.6 - 0.2 - - - - - - -
20/01:00pm 22.2 S 14 22 1008.3 - 0.2 - - - - - - -
20/12:30pm 21.9 S 15 20 1008.2 - 0.0 - - - - - - -
20/12:00pm 21.3 SSE 16 22 1008.1 - 0.0 - - - - - - -
20/11:30am 19.8 S 18 24 1008.1 - 0.0 - - - - - - -
20/11:00am 18.3 S 20 27 1008.0 - 0.0 - - - - - - -
20/10:30am 18.6 S 17 24 1007.3 - 0.0 - - - - - - -
20/10:00am 18.0 S 19 26 1006.9 - 0.0 - - - - - - -
20/09:30am 17.8 S 18 25 1006.5 - 0.0 - - - - - - -
20/09:00am 17.4 S 16 23 1005.8 - 14.0 - - - - - - -
20/08:30am 17.3 S 14 18 1005.3 - 14.0 - - - - - - -
20/08:00am 17.4 S 13 17 1004.8 - 14.0 - - - - - - -
20/07:30am 17.1 S 16 23 1004.2 - 14.0 - - - - - - -
20/07:00am 17.4 SSW 12 16 1003.2 - 14.0 - - - - - - -
20/06:30am 17.4 SSW 15 20 1002.6 - 14.0 - - - - - - -
20/06:00am 17.7 SSW 18 26 1002.0 - 14.0 - - - - - - -
20/05:30am 17.9 SW 17 24 1001.3 - 14.0 - - - - - - -
20/05:00am 18.4 SW 15 21 1001.2 - 14.0 - - - - - - -
20/04:30am 18.6 SW 17 22 1000.7 - 14.0 - - - - - - -
20/04:00am 18.5 SW 10 13 1000.1 - 14.0 - - - - - - -
20/03:30am 18.2 SW 8 10 999.7 - 14.0 - - - - - - -
20/03:00am 18.2 WSW 5 7 999.4 - 14.0 - - - - - - -
20/02:30am 18.3 SW 5 6 999.5 - 14.0 - - - - - - -
20/02:00am 18.2 E 9 11 999.0 - 14.0 - - - - - - -
20/01:30am 18.0 E 12 16 998.5 - 14.0 - - - - - - -
20/01:00am 17.7 SE 12 15 999.0 - 13.8 - - - - - - -
20/12:30am 17.6 SSE 12 15 1001.0 - 13.0 - - - - - - -
20/12:00am 17.5 SSE 17 23 1000.6 - 8.4 Rain - - - - - -
 
Date/Time
CDT
Temp
°C
Wind Pressure Rain since
9am
mm
Weather Cloud Vis
km
Sea
Height
m
Swell
Dir  Spd
kts
Gust
kts
hPa Trend Height
m
Period
s
Dir
19/11:30pm 17.8 S 18 24 1001.0 - 6.8 - - - - - - -
19/11:06pm 18.8 S 16 26 1000.9 - 6.8 - - - - - - -
19/11:00pm 19.6 S 12 16 1000.7 - 6.8 - - - - - - -
19/10:30pm 20.3 SSW 12 19 1000.3 - 5.8 - - - - - - -
19/10:00pm 21.2 SSW 13 16 999.2 - 5.4 - - - - - - -
19/09:30pm 21.4 WSW 16 23 999.0 - 5.0 - - - - - - -
19/09:00pm 23.0 WNW 11 17 999.8 - 4.8 Recent precip. - - - - - -
19/08:30pm 23.1 NW 8 13 998.2 - 4.8 - - - - - - -
19/08:00pm 23.2 NW 10 16 998.9 - 4.4 - - - - - - -
19/07:48pm 23.2 WNW 19 30 1000.0 - 3.8 - - - - - - -
19/07:45pm 23.7 WNW 21 31 1000.1 - 3.4 - - - - - - -
19/07:36pm 24.2 NW 34 55 1000.0 - 2.8 - - - - - - -
19/07:30pm 27.1 N 19 54 998.4 - 0.0 - - - - - - -
19/07:29pm 29.2 NNE 16 45 998.6 - 0.0 - - - - - - -
19/07:28pm 33.0 NNE 13 34 998.6 - 0.0 - - - - - - -
19/07:27pm 34.7 NNE 11 27 997.9 - 0.0 - - - - - - -
19/07:00pm 35.3 ENE 11 13 995.6 - 0.0 - - - - - - -
19/06:30pm 35.7 ENE 11 14 996.0 - 0.0 - - - - - - -
19/06:00pm 37.6 ENE 14 18 996.3 - 0.0 - - - - - - -
19/05:30pm 36.2 E 13 18 996.7 - 0.0 - - - - - - -
19/05:00pm 37.6 E 10 15 997.2 - 0.0 - - - - - - -
19/04:30pm 38.5 NW 7 11 998.5 - 0.0 - - - - - - -
19/04:00pm 37.5 NW 4 8 999.6 - 0.0 - - - - - - -
19/03:30pm 35.9 NNE 7 11 1000.5 - 0.0 - - - - - - -
19/03:00pm 35.8 NNW 11 15 1001.6 - 0.0 - - - - - - -
19/02:30pm 36.5 NNW 10 16 1002.3 - 0.0 - - - - - - -
19/02:00pm 37.0 NNW 13 16 1003.1 - 0.0 - - - - - - -
19/01:30pm 36.6 ENE 9 15 1003.4 - 0.0 - - - - - - -
19/01:00pm 33.2 E 10 14 1004.3 - 0.0 - - - - - - -
19/12:30pm 30.7 ENE 11 14 1005.3 - 0.0 - - - - - - -
19/12:00pm 29.8 ENE 11 14 1006.0 - 0.0 - - - - - - -
19/11:30am 28.9 ENE 12 16 1006.2 - 0.0 - - - - - - -
19/11:00am 28.5 ENE 15 19 1006.1 - 0.0 - - - - - - -
19/10:30am 27.5 E 16 19 1006.7 - 0.0 - - - - - - -
19/10:00am 24.9 E 14 18 1007.5 - 0.0 - - - - - - -
19/09:30am 24.0 ENE 14 18 1008.1 - 0.0 - - - - - - -
19/09:00am 23.3 ENE 14 18 1008.0 - 0.0 - - - - - - -
19/08:30am 23.0 ENE 15 19 1008.2 - 0.0 - - - - - - -
19/08:00am 21.9 E 13 20 1008.2 - 0.0 - - - - - - -
19/07:30am 20.4 E 14 19 1008.2 - 0.0 - - - - - - -
19/07:00am 19.3 SE 8 11 1008.8 - 0.0 - - - - - - -
19/06:30am 18.5 SE 10 12 1008.9 - 0.0 - - - - - - -
19/06:00am 18.0 S 6 9 1008.9 - 0.0 - - - - - - -
19/05:30am 17.8 SE 11 14 1008.5 - 0.0 - - - - - - -
19/05:00am 17.7 ESE 12 17 1008.8 - 0.0 - - - - - - -
19/04:30am 17.6 SE 11 14 1009.0 - 0.0 - - - - - - -
19/04:00am 17.4 SE 10 14 1009.4 - 0.0 - - - - - - -
19/03:30am 17.4 SE 8 11 1009.8 - 0.0 - - - - - - -
19/03:00am 17.6 SE 13 17 1009.9 - 0.0 - - - - - - -
19/02:30am 17.7 SE 13 17 1010.2 - 0.0 - - - - - - -
19/02:00am 17.8 SE 13 17 1010.6 - 0.0 - - - - - - -
19/01:30am 18.1 SE 12 17 1011.1 - 0.0 - - - - - - -
19/01:00am 18.4 SE 12 15 1011.8 - 0.0 - - - - - - -
19/12:30am 18.2 SE 12 16 1012.0 - 0.0 - - - - - - -
19/12:00am 18.0 SE 14 19 1012.4 - 0.0 - - - - - - -
 
Date/Time
CDT
Temp
°C
Wind Pressure Rain since
9am
mm
Weather Cloud Vis
km
Sea
Height
m
Swell
Dir  Spd
kts
Gust
kts
hPa Trend Height
m
Period
s
Dir
18/11:30pm 18.1 SE 13 18 1012.8 - 0.0 - - - - - - -
18/11:00pm 17.9 SE 13 19 1012.9 - 0.0 - - - - - - -
18/10:30pm 17.7 SE 15 20 1013.1 - 0.0 - - - - - - -
18/10:00pm 17.7 SE 16 21 1012.8 - 0.0 - - - - - - -
18/09:30pm 17.8 SE 18 23 1012.6 - 0.0 - - - - - - -
18/09:00pm 18.0 SE 16 22 1012.9 - 0.0 - - - - - - -
18/08:30pm 18.4 SE 20 26 1012.8 - 0.0 - - - - - - -
18/08:00pm 19.4 SE 21 29 1012.7 - 0.0 - - - - - - -
18/07:30pm 20.3 SSE 22 28 1012.7 - 0.0 - - - - - - -
18/07:00pm 20.9 SE 20 27 1012.2 - 0.0 - - - - - - -
18/06:30pm 21.7 SE 21 28 1012.2 - 0.0 - - - - - - -
18/06:00pm 22.2 SE 20 25 1012.2 - 0.0 - - - - - - -
18/05:30pm 23.0 SSE 21 28 1012.3 - 0.0 - - - - - - -
18/05:00pm 23.6 SE 21 27 1012.4 - 0.0 - - - - - - -
18/04:30pm 23.9 SE 19 24 1012.9 - 0.0 - - - - - - -
18/04:00pm 24.5 SE 20 25 1013.2 - 0.0 - - - - - - -
18/03:30pm 23.7 SE 20 28 1013.6 - 0.0 - - - - - - -
18/03:06pm 25.8 SE 17 27 1013.9 - 0.0 - - - - - - -
18/03:00pm 25.2 SE 18 27 1013.9 - 0.0 - - - - - - -
18/02:30pm 24.8 SE 19 25 1014.2 - 0.0 - - - - - - -
18/02:00pm 25.5 SE 18 24 1014.2 - 0.0 - - - - - - -
18/01:30pm 24.9 SE 20 26 1014.5 - 0.0 - - - - - - -
18/01:00pm 24.6 SE 19 25 1014.5 - 0.0 - - - - - - -

Other Formats:

Comma delimited format used in spreadsheet applications
http://www.bom.gov.au/fwo/IDS60701/IDS60701.95659.axf

JavaScript Object Notation format (JSON) in row-major order
http://www.bom.gov.au/fwo/IDS60701/IDS60701.95659.json